Time;durP1;ratioP1;P1;durP2;ratioP2;P2;SDS_P1;SDS_P2;PMS_P1;PMS_P2;Temp;Humidity;BMP_temperature;BMP_pressure;BME280_temperature;BME280_humidity;BME280_pressure;Samples;Min_cycle;Max_cycle;Signal;HPM_P1;HPM_P2
2021/07/06 00:02:40;;;;;;;3.78;2.17;;;;;;;23.56;61.68;100206.91;5021808;28;20507;-80
2021/07/06 00:05:45;;;;;;;4.43;2.20;;;;;;;23.48;61.51;100199.78;5034558;28;20052;-81
2021/07/06 00:08:49;;;;;;;3.22;2.17;;;;;;;23.38;61.90;100213.13;5032332;28;20045;-81
2021/07/06 00:11:54;;;;;;;6.50;2.20;;;;;;;23.44;61.77;100206.78;5033085;28;20052;-79
2021/07/06 00:14:58;;;;;;;3.17;1.70;;;;;;;23.46;61.84;100212.03;5006660;28;20048;-81
2021/07/06 00:18:03;;;;;;;3.03;1.80;;;;;;;23.43;61.53;100207.84;5034161;28;20060;-80
2021/07/06 00:21:09;;;;;;;4.13;1.80;;;;;;;23.46;61.51;100212.03;5034296;28;20419;-80
2021/07/06 00:24:14;;;;;;;3.53;2.22;;;;;;;23.55;61.49;100210.72;5032669;28;20044;-80
2021/07/06 00:27:18;;;;;;;4.35;2.22;;;;;;;23.65;60.96;100211.06;5033427;28;20056;-81
2021/07/06 00:30:28;;;;;;;6.75;2.22;;;;;;;23.73;60.94;100211.63;5032087;28;20056;-78
2021/07/06 00:33:33;;;;;;;3.10;2.20;;;;;;;23.72;61.24;100209.97;5032580;28;20495;-79
2021/07/06 00:36:45;;;;;;;9.82;2.33;;;;;;;23.55;61.68;100217.06;5034018;28;20404;-80
2021/07/06 00:39:49;;;;;;;4.00;2.17;;;;;;;23.44;62.00;100220.47;5031547;28;20057;-80
2021/07/06 00:42:59;;;;;;;3.08;2.00;;;;;;;23.34;62.08;100217.34;5032497;28;20057;-81
2021/07/06 00:46:05;;;;;;;5.38;2.40;;;;;;;23.31;62.25;100217.78;5033669;28;20044;-79
2021/07/06 00:49:10;;;;;;;6.10;2.13;;;;;;;23.35;62.38;100218.19;5031509;28;20052;-79
2021/07/06 00:52:15;;;;;;;3.97;1.80;;;;;;;23.35;62.49;100218.19;5032170;28;20056;-81
2021/07/06 00:55:20;;;;;;;5.80;1.92;;;;;;;23.42;62.12;100222.63;5032701;28;20056;-80
2021/07/06 00:58:26;;;;;;;3.78;2.00;;;;;;;23.46;62.15;100223.00;5033570;28;20045;-80
2021/07/06 01:01:31;;;;;;;4.90;2.25;;;;;;;23.45;62.69;100227.66;5032219;28;20057;-79
2021/07/06 01:04:45;;;;;;;4.82;2.10;;;;;;;23.42;62.48;100230.84;5022395;28;20052;-79
2021/07/06 01:07:51;;;;;;;7.07;2.40;;;;;;;23.35;62.76;100226.41;5021482;28;20048;-80
2021/07/06 01:10:55;;;;;;;6.78;2.40;;;;;;;23.33;63.25;100234.88;5032105;28;20060;-79
2021/07/06 01:14:00;;;;;;;6.20;2.03;;;;;;;23.29;62.91;100234.47;5033296;28;20507;-80
2021/07/06 01:17:06;;;;;;;6.88;2.20;;;;;;;23.26;63.07;100228.56;5034277;28;20064;-79
2021/07/06 01:20:17;;;;;;;2.88;2.10;;;;;;;23.20;63.35;100234.94;5032217;28;20500;-80
2021/07/06 01:23:26;;;;;;;4.95;2.28;;;;;;;23.12;63.56;100226.97;5033725;28;20044;-80
2021/07/06 01:26:30;;;;;;;3.72;2.25;;;;;;;23.08;63.81;100236.69;5032265;28;20048;-79
2021/07/06 01:29:35;;;;;;;4.30;2.00;;;;;;;23.16;63.74;100233.69;5009375;28;20467;-80
2021/07/06 01:32:41;;;;;;;4.22;2.38;;;;;;;23.18;64.09;100228.84;5033319;28;20049;-80
2021/07/06 01:35:45;;;;;;;3.22;2.10;;;;;;;23.20;63.22;100233.03;5033922;28;20499;-78
2021/07/06 01:38:50;;;;;;;4.05;2.40;;;;;;;23.07;64.21;100221.31;5031841;28;20064;-80
2021/07/06 01:41:54;;;;;;;6.07;2.25;;;;;;;23.03;64.21;100236.50;5032402;28;20052;-79
2021/07/06 01:45:11;;;;;;;3.13;2.05;;;;;;;22.98;64.76;100236.31;5032598;28;20040;-80
2021/07/06 01:48:15;;;;;;;5.03;2.47;;;;;;;23.00;64.79;100239.66;5031550;28;20043;-79
2021/07/06 01:51:20;;;;;;;6.68;2.90;;;;;;;22.95;65.01;100243.06;4993341;28;20049;-80
2021/07/06 01:54:24;;;;;;;7.78;2.50;;;;;;;22.90;65.23;100237.41;4994028;28;20045;-79
2021/07/06 01:57:29;;;;;;;3.05;2.20;;;;;;;22.88;65.13;100233.19;4992043;28;20037;-79
2021/07/06 02:00:36;;;;;;;4.18;2.30;;;;;;;22.96;64.68;100235.69;4992421;28;20428;-80
2021/07/06 02:03:40;;;;;;;3.92;2.30;;;;;;;22.90;65.20;100222.88;4993442;28;20049;-80
2021/07/06 02:06:45;;;;;;;8.40;2.60;;;;;;;22.86;65.37;100221.63;4990997;28;20065;-80
2021/07/06 02:09:49;;;;;;;5.93;2.47;;;;;;;22.89;65.08;100226.66;4988893;28;20397;-80
2021/07/06 02:12:54;;;;;;;5.78;3.08;;;;;;;22.88;65.49;100225.84;4992400;28;20041;-78
2021/07/06 02:16:00;;;;;;;5.80;2.88;;;;;;;22.89;65.46;100222.03;4993116;28;20046;-80
2021/07/06 02:19:04;;;;;;;6.10;2.95;;;;;;;22.84;65.68;100210.06;4991120;28;20045;-79
2021/07/06 02:22:09;;;;;;;8.68;3.10;;;;;;;22.81;65.44;100214.09;4991287;28;20049;-80
2021/07/06 02:25:15;;;;;;;5.93;3.35;;;;;;;22.86;65.41;100216.16;4989544;28;20508;-80
2021/07/06 02:28:21;;;;;;;7.85;3.50;;;;;;;22.82;66.00;100204.78;4992987;28;20054;-79
2021/07/06 02:31:26;;;;;;;6.22;3.55;;;;;;;22.84;66.04;100219.09;4991035;28;20057;-80
2021/07/06 02:34:30;;;;;;;8.80;3.67;;;;;;;22.75;66.40;100225.88;4991887;28;20050;-81
2021/07/06 02:37:36;;;;;;;11.38;3.92;;;;;;;22.67;66.66;100224.22;4991452;28;20512;-81
2021/07/06 02:40:40;;;;;;;6.55;3.75;;;;;;;22.51;67.16;100223.84;4992752;28;20591;-80
2021/07/06 02:43:45;;;;;;;4.78;3.42;;;;;;;22.44;67.15;100226.56;4992807;28;20053;-80
2021/07/06 02:46:50;;;;;;;7.47;3.28;;;;;;;22.42;67.38;100231.41;4991303;28;20045;-78
2021/07/06 02:49:54;;;;;;;11.98;3.72;;;;;;;22.35;67.65;100236.06;5017147;28;20408;-80
2021/07/06 02:52:58;;;;;;;6.10;3.65;;;;;;;22.44;67.54;100221.09;5031866;28;20052;-79
2021/07/06 02:56:03;;;;;;;5.05;2.72;;;;;;;22.45;67.37;100233.72;5020266;28;20076;-80
2021/07/06 02:59:08;;;;;;;8.77;3.40;;;;;;;22.50;67.53;100233.09;5032740;28;20061;-78
2021/07/06 03:02:13;;;;;;;6.47;3.45;;;;;;;22.46;67.42;100231.84;5034853;28;20044;-78
2021/07/06 03:05:20;;;;;;;9.38;4.00;;;;;;;22.39;67.36;100229.09;5035388;28;20061;-80
2021/07/06 03:08:25;;;;;;;7.53;3.63;;;;;;;22.32;67.80;100236.47;5036258;28;20097;-78
2021/07/06 03:11:30;;;;;;;7.50;3.78;;;;;;;22.35;67.61;100235.22;5034360;28;20049;-78
2021/07/06 03:14:34;;;;;;;11.75;4.70;;;;;;;22.30;67.88;100241.34;5011603;28;20041;-78
2021/07/06 03:17:39;;;;;;;9.07;5.05;;;;;;;22.29;67.83;100242.41;5035447;28;20036;-79
2021/07/06 03:20:48;;;;;;;6.28;4.32;;;;;;;22.40;67.44;100241.75;5035770;28;20045;-80
2021/07/06 03:23:52;;;;;;;8.25;4.88;;;;;;;22.39;67.79;100242.78;5022313;28;20049;-79
2021/07/06 03:26:56;;;;;;;9.25;5.18;;;;;;;22.40;67.74;100239.00;5034944;28;20113;-80
2021/07/06 03:30:00;;;;;;;9.27;6.70;;;;;;;22.41;67.51;100240.69;5035380;28;20511;-78
2021/07/06 03:33:09;;;;;;;8.48;5.95;;;;;;;22.44;67.29;100237.50;5035904;28;20048;-80
2021/07/06 03:36:13;;;;;;;11.07;5.68;;;;;;;22.34;67.95;100252.69;5034424;28;20396;-80
2021/07/06 03:39:18;;;;;;;8.18;5.95;;;;;;;22.30;68.21;100251.44;5035117;28;20036;-81
2021/07/06 03:42:23;;;;;;;8.32;5.68;;;;;;;22.10;68.87;100265.13;5036159;28;20056;-80
2021/07/06 03:45:27;;;;;;;7.82;5.25;;;;;;;22.07;69.09;100268.31;5035835;28;20050;-81
2021/07/06 03:48:32;;;;;;;7.53;4.57;;;;;;;22.02;69.20;100276.28;5033470;28;20044;-81
2021/07/06 03:51:36;;;;;;;6.55;4.15;;;;;;;22.02;69.10;100268.91;5034531;28;20538;-79
2021/07/06 03:54:41;;;;;;;7.43;4.10;;;;;;;22.00;68.90;100261.97;5035059;28;20057;-79
2021/07/06 03:57:46;;;;;;;8.40;4.20;;;;;;;22.00;68.91;100260.09;5034805;28;20372;-79
2021/07/06 04:00:51;;;;;;;13.40;4.13;;;;;;;22.04;68.36;100274.19;5033340;28;20049;-80
2021/07/06 04:03:55;;;;;;;11.77;3.95;;;;;;;22.08;68.75;100274.59;5034061;28;20116;-80
2021/07/06 04:07:00;;;;;;;9.65;4.10;;;;;;;22.11;68.45;100269.56;5023490;28;20510;-78
2021/07/06 04:10:07;;;;;;;5.00;3.20;;;;;;;22.25;67.99;100273.94;5034348;28;20065;-78
2021/07/06 04:13:12;;;;;;;9.45;3.75;;;;;;;22.37;67.04;100269.50;5033506;28;20048;-80
2021/07/06 04:16:17;;;;;;;10.90;4.20;;;;;;;22.59;66.30;100272.84;5033767;28;20052;-79
2021/07/06 04:19:21;;;;;;;7.97;3.13;;;;;;;22.90;65.18;100269.41;5034715;28;20432;-81
2021/07/06 04:22:26;;;;;;;9.50;3.42;;;;;;;23.26;63.83;100275.13;5035172;28;20526;-80
2021/07/06 04:25:31;;;;;;;6.72;3.50;;;;;;;23.37;62.98;100266.25;5033180;28;20502;-80
2021/07/06 04:28:36;;;;;;;9.05;3.22;;;;;;;23.54;61.89;100266.56;5033792;28;20052;-80
2021/07/06 04:31:41;;;;;;;11.55;3.97;;;;;;;23.87;60.67;100273.50;5034058;28;20040;-80
2021/07/06 04:34:46;;;;;;;6.47;3.13;;;;;;;24.40;59.17;100275.81;5034573;28;20511;-80
2021/07/06 04:37:51;;;;;;;7.95;3.33;;;;;;;24.64;58.28;100285.09;5032876;28;20045;-79
2021/07/06 04:40:56;;;;;;;10.35;2.90;;;;;;;24.89;57.04;100283.97;5032739;28;20254;-78
2021/07/06 04:44:00;;;;;;;5.57;3.22;;;;;;;25.34;56.05;100302.84;5033853;28;20404;-79
2021/07/06 04:47:05;;;;;;;9.25;3.53;;;;;;;25.72;54.79;100298.75;5034358;28;20068;-78
2021/07/06 04:50:11;;;;;;;6.78;3.35;;;;;;;25.94;54.26;100304.53;5034604;28;20396;-80
2021/07/06 04:53:16;;;;;;;7.68;3.25;;;;;;;26.33;52.94;100311.34;5032275;28;20048;-80
2021/07/06 04:56:24;;;;;;;4.40;3.00;;;;;;;26.92;50.97;100318.53;5033526;28;20049;-80
2021/07/06 04:59:29;;;;;;;5.50;3.22;;;;;;;27.26;50.26;100305.78;5034470;28;20049;-80
2021/07/06 05:02:34;;;;;;;24.08;21.73;;;;;;;27.58;49.11;100312.47;5019693;28;20061;-78
2021/07/06 05:05:39;;;;;;;59.28;53.42;;;;;;;27.78;49.01;100310.13;5031891;28;20048;-79
2021/07/06 05:08:45;;;;;;;16.95;12.48;;;;;;;28.41;47.22;100309.88;5033036;28;20044;-78
2021/07/06 05:11:50;;;;;;;7.72;3.95;;;;;;;29.23;45.87;100304.47;5033274;28;20038;-79
2021/07/06 05:14:55;;;;;;;8.40;2.80;;;;;;;29.73;43.95;100309.75;5031651;28;20040;-79
2021/07/06 05:17:59;;;;;;;5.25;2.72;;;;;;;30.18;42.34;100305.50;5031384;28;20056;-77
2021/07/06 05:21:03;;;;;;;5.65;2.72;;;;;;;30.31;42.25;100311.69;5020339;28;20060;-80
2021/07/06 05:24:09;;;;;;;3.97;2.38;;;;;;;30.78;41.03;100309.84;5032021;28;20511;-80
2021/07/06 05:27:13;;;;;;;9.05;2.35;;;;;;;31.39;40.40;100313.78;5031138;28;20052;-80
2021/07/06 05:30:19;;;;;;;4.88;2.40;;;;;;;32.37;38.89;100309.81;5031915;28;20049;-80
2021/07/06 05:33:24;;;;;;;4.57;2.13;;;;;;;32.78;37.69;100300.34;5034873;28;20103;-80
2021/07/06 05:36:28;;;;;;;7.45;2.30;;;;;;;34.05;35.39;100305.38;5035117;28;20048;-80
2021/07/06 05:39:32;;;;;;;12.18;2.88;;;;;;;34.57;34.49;100302.69;5020282;28;20421;-80
2021/07/06 05:42:39;;;;;;;5.68;2.30;;;;;;;36.27;32.61;100309.19;5023276;28;20523;-82
2021/07/06 05:45:43;;;;;;;11.77;2.83;;;;;;;37.88;29.42;100299.56;5033718;28;20049;-81
2021/07/06 05:48:48;;;;;;;8.23;2.50;;;;;;;39.43;27.73;100299.38;5014658;28;20053;-80
2021/07/06 05:51:53;;;;;;;9.02;2.13;;;;;;;39.54;27.71;100304.34;5002535;28;20520;-81
2021/07/06 05:54:57;;;;;;;9.55;2.60;;;;;;;39.99;27.31;100309.69;5014902;28;20412;-80
2021/07/06 05:58:04;;;;;;;6.68;2.50;;;;;;;41.05;25.64;100298.44;5020896;28;20049;-79
2021/07/06 06:01:09;;;;;;;4.18;2.38;;;;;;;41.01;25.90;100294.66;5033910;28;20057;-82
2021/07/06 06:04:15;;;;;;;3.88;2.20;;;;;;;42.01;24.71;100297.50;5034735;28;20052;-81
2021/07/06 06:07:19;;;;;;;8.52;2.33;;;;;;;42.63;24.18;100301.09;5034409;28;20060;-81
2021/07/06 06:10:23;;;;;;;6.85;2.47;;;;;;;41.83;25.01;100298.81;5034633;28;20060;-80
2021/07/06 06:13:27;;;;;;;7.10;2.47;;;;;;;41.98;25.05;100293.38;5034568;28;20056;-80
2021/07/06 06:16:51;;;;;;;8.32;2.70;;;;;;;43.41;23.44;100305.81;5033544;28;20105;-80
2021/07/06 06:20:14;;;;;;;6.43;2.42;;;;;;;43.16;23.47;100304.97;5024354;28;20052;-79
2021/07/06 06:23:37;;;;;;;6.80;2.30;;;;;;;44.29;22.54;100300.06;5014317;28;20052;-82
2021/07/06 06:27:01;;;;;;;6.43;2.40;;;;;;;44.46;22.84;100294.06;5018512;28;20048;-80
2021/07/06 06:30:25;;;;;;;6.38;2.70;;;;;;;45.16;22.04;100306.53;5030290;28;20053;-81
2021/07/06 06:33:48;;;;;;;6.40;2.85;;;;;;;45.10;22.21;100307.97;5026193;28;20057;-81
2021/07/06 06:37:11;;;;;;;4.90;2.78;;;;;;;44.31;22.88;100294.88;5033581;28;20120;-82
2021/07/06 06:40:16;;;;;;;6.68;2.40;;;;;;;45.69;21.31;100297.31;5024982;28;20048;-81
2021/07/06 06:43:20;;;;;;;5.50;2.53;;;;;;;45.79;21.62;100298.75;5029402;28;20401;-81
2021/07/06 06:46:26;;;;;;;4.72;2.30;;;;;;;45.81;21.75;100302.03;5033510;28;20511;-79
2021/07/06 06:49:32;;;;;;;5.35;3.28;;;;;;;43.77;23.39;100306.59;5033700;28;20404;-82
2021/07/06 06:52:37;;;;;;;5.22;2.67;;;;;;;46.00;21.70;100302.06;5034173;28;20522;-81
2021/07/06 06:55:41;;;;;;;10.32;3.92;;;;;;;42.68;24.44;100306.53;5032522;28;20068;-82
2021/07/06 06:58:46;;;;;;;6.30;3.90;;;;;;;42.91;24.40;100300.47;5013619;28;20053;-81
2021/07/06 07:02:16;;;;;;;7.10;3.60;;;;;;;43.47;24.16;100299.56;5013696;28;20092;-83
2021/07/06 07:05:16;;;;;;;9.05;3.90;;;;;;;41.20;25.85;100306.31;5013734;28;20049;-81
2021/07/06 07:08:22;;;;;;;4.80;3.45;;;;;;;43.09;24.27;100294.22;5013834;28;20060;-80
2021/07/06 07:11:26;;;;;;;5.65;3.80;;;;;;;46.30;21.12;100290.91;5013333;28;20069;-80
2021/07/06 07:14:31;;;;;;;5.93;3.42;;;;;;;47.40;20.05;100299.47;4990622;28;20057;-81
2021/07/06 07:17:36;;;;;;;4.38;3.40;;;;;;;45.91;21.09;100307.13;5013449;28;20065;-80
2021/07/06 07:20:41;;;;;;;11.73;3.95;;;;;;;45.37;21.98;100300.56;5001613;28;20057;-80
2021/07/06 07:23:46;;;;;;;10.98;3.88;;;;;;;44.11;23.50;100308.03;5013501;28;20507;-81
2021/07/06 07:26:50;;;;;;;10.60;4.30;;;;;;;46.62;21.09;100300.09;5013821;28;20049;-82
2021/07/06 07:29:56;;;;;;;5.68;3.47;;;;;;;49.18;19.28;100304.13;5013198;28;20060;-82
2021/07/06 07:33:00;;;;;;;8.25;3.85;;;;;;;48.66;19.14;100306.09;5013605;28;20069;-81
2021/07/06 07:36:05;;;;;;;8.98;3.70;;;;;;;47.84;19.94;100314.81;5013244;28;20516;-81
2021/07/06 07:39:10;;;;;;;6.55;3.58;;;;;;;49.53;18.64;100310.91;5013596;28;20056;-82
2021/07/06 07:42:16;;;;;;;9.10;3.45;;;;;;;50.36;18.59;100304.47;5013247;28;20049;-83
2021/07/06 07:45:21;;;;;;;8.07;4.28;;;;;;;47.28;20.64;100309.03;5013536;28;20049;-82
2021/07/06 07:48:26;;;;;;;8.75;3.90;;;;;;;46.97;20.58;100303.59;5024066;28;20427;-79
2021/07/06 07:51:30;;;;;;;8.35;4.10;;;;;;;48.59;19.45;100311.72;5036022;28;20068;-81
2021/07/06 07:54:36;;;;;;;8.27;4.45;;;;;;;48.16;19.71;100310.38;5036729;28;20052;-82
2021/07/06 07:57:40;;;;;;;5.65;3.90;;;;;;;46.82;21.19;100318.75;5036442;28;20392;-82
2021/07/06 08:00:45;;;;;;;9.95;3.90;;;;;;;48.92;19.60;100314.50;5036644;28;20052;-81
2021/07/06 08:04:02;;;;;;;5.90;4.00;;;;;;;46.36;21.64;100321.53;5022801;28;20048;-81
2021/07/06 08:07:07;;;;;;;16.50;12.90;;;;;;;44.24;23.84;100318.16;5034847;28;20056;-82
2021/07/06 08:10:12;;;;;;;7.68;6.18;;;;;;;43.69;24.52;100316.03;5021426;28;20053;-82
2021/07/06 08:13:17;;;;;;;7.95;4.25;;;;;;;46.32;22.03;100306.38;5036364;28;20052;-80
2021/07/06 08:16:21;;;;;;;10.88;3.50;;;;;;;47.28;21.44;100311.06;5035806;28;20420;-82
2021/07/06 08:19:27;;;;;;;4.78;4.18;;;;;;;44.70;23.87;100319.44;5036098;28;20064;-80
2021/07/06 08:22:32;;;;;;;7.43;5.80;;;;;;;40.74;27.75;100300.69;5036163;28;20056;-80
2021/07/06 08:25:38;;;;;;;5.97;5.20;;;;;;;38.33;31.80;100304.06;5035737;28;20060;-79
2021/07/06 08:28:45;;;;;;;8.18;6.03;;;;;;;36.66;33.99;100303.22;5035802;28;20048;-79
2021/07/06 08:31:50;;;;;;;7.72;5.93;;;;;;;35.47;36.34;100297.22;5035299;28;20064;-79
2021/07/06 08:34:54;;;;;;;6.82;6.13;;;;;;;35.65;36.61;100300.03;5035617;28;20045;-79
2021/07/06 08:37:59;;;;;;;9.35;6.55;;;;;;;33.96;39.94;100300.38;5035626;28;20044;-80
2021/07/06 08:41:04;;;;;;;13.20;7.47;;;;;;;33.48;40.36;100298.41;5035649;28;20056;-79
2021/07/06 08:44:09;;;;;;;11.32;4.93;;;;;;;34.18;39.58;100290.75;5034888;28;20049;-79
2021/07/06 08:47:17;;;;;;;8.35;6.43;;;;;;;33.87;39.84;100298.50;5035600;28;20044;-79
2021/07/06 08:50:23;;;;;;;7.32;6.50;;;;;;;33.47;40.11;100296.78;5033508;28;20046;-79
2021/07/06 08:53:28;;;;;;;8.85;6.07;;;;;;;33.40;40.31;100290.69;5032985;28;20080;-80
2021/07/06 08:56:32;;;;;;;9.13;6.75;;;;;;;33.69;40.26;100285.25;5034594;28;20045;-81
2021/07/06 08:59:38;;;;;;;7.57;5.25;;;;;;;33.92;39.73;100277.00;5034546;28;20052;-80
2021/07/06 09:03:00;;;;;;;13.77;6.20;;;;;;;33.19;40.89;100289.09;5034400;28;20396;-79
2021/07/06 09:06:09;;;;;;;14.18;7.15;;;;;;;33.02;41.50;100280.25;5034517;28;20056;-81
2021/07/06 09:09:18;;;;;;;14.65;6.90;;;;;;;33.29;41.12;100284.34;5030925;28;20107;-79
2021/07/06 09:12:36;;;;;;;10.18;6.13;;;;;;;33.55;41.34;100273.94;5034797;28;20057;-79
2021/07/06 09:15:49;;;;;;;13.27;5.60;;;;;;;33.67;39.79;100271.63;5034934;28;20044;-80
2021/07/06 09:18:54;;;;;;;6.95;4.55;;;;;;;33.55;39.94;100276.72;5035147;28;20064;-78
2021/07/06 09:22:30;;;;;;;11.05;4.88;;;;;;;33.90;40.02;100270.09;5034817;28;20045;-79
2021/07/06 09:25:35;;;;;;;6.45;3.78;;;;;;;34.09;39.14;100273.03;5033910;28;20064;-79
2021/07/06 09:28:42;;;;;;;14.00;5.05;;;;;;;34.06;39.60;100271.66;5033348;28;20048;-80
2021/07/06 09:31:47;;;;;;;11.82;4.07;;;;;;;33.94;39.94;100269.22;5033299;28;20048;-80
2021/07/06 09:34:51;;;;;;;9.73;4.30;;;;;;;34.09;39.90;100261.88;5033689;28;20515;-79
2021/07/06 09:37:57;;;;;;;10.77;5.28;;;;;;;34.25;39.63;100267.00;5022282;28;20061;-79
2021/07/06 09:41:01;;;;;;;11.63;4.00;;;;;;;34.38;39.26;100260.78;5033846;28;20503;-81
2021/07/06 09:44:22;;;;;;;18.50;6.05;;;;;;;34.34;39.78;100265.28;5033881;28;20052;-82
2021/07/06 09:47:27;;;;;;;18.33;7.90;;;;;;;33.98;39.95;100255.50;5033712;28;20044;-80
2021/07/06 09:50:32;;;;;;;12.88;5.95;;;;;;;33.86;40.78;100258.69;5033000;28;20061;-81
2021/07/06 09:53:36;;;;;;;16.30;5.43;;;;;;;33.88;40.66;100256.44;5030233;28;20045;-81
2021/07/06 09:56:44;;;;;;;11.57;5.80;;;;;;;34.02;40.09;100257.41;5022192;28;20056;-80
2021/07/06 10:00:09;;;;;;;14.35;5.60;;;;;;;33.54;40.98;100249.13;5032218;28;20056;-79
2021/07/06 10:03:23;;;;;;;8.50;4.65;;;;;;;33.68;40.64;100247.38;5014376;28;20065;-79
2021/07/06 10:06:29;;;;;;;17.10;5.78;;;;;;;33.67;40.73;100246.56;5002570;28;20117;-80
2021/07/06 10:09:35;;;;;;;14.45;5.65;;;;;;;33.66;41.43;100247.69;5014376;28;20049;-81
2021/07/06 10:12:42;;;;;;;12.63;5.80;;;;;;;33.75;42.31;100239.56;5032489;28;20048;-81
2021/07/06 10:15:48;;;;;;;15.55;6.45;;;;;;;33.84;41.99;100247.00;5032927;28;20044;-79
2021/07/06 10:18:54;;;;;;;16.65;6.50;;;;;;;33.64;42.29;100249.94;5034366;28;20064;-79
2021/07/06 10:21:59;;;;;;;20.27;5.70;;;;;;;33.55;42.91;100248.88;5033702;28;20076;-80
2021/07/06 10:25:07;;;;;;;14.40;9.15;;;;;;;33.47;42.32;100246.66;5027389;28;20056;-81
2021/07/06 10:28:17;;;;;;;13.13;8.38;;;;;;;32.84;43.28;100242.75;5032901;28;20396;-82
2021/07/06 10:31:24;;;;;;;10.20;7.65;;;;;;;32.85;43.59;100236.09;5029694;28;20397;-81
2021/07/06 10:34:29;;;;;;;11.77;8.32;;;;;;;32.68;43.50;100235.59;5033898;28;20075;-79
2021/07/06 10:37:33;;;;;;;16.77;8.90;;;;;;;32.36;43.72;100238.69;5033654;28;20072;-83
2021/07/06 10:40:43;;;;;;;11.25;7.82;;;;;;;32.09;43.94;100238.16;5009086;28;20064;-80
2021/07/06 10:43:47;;;;;;;13.88;8.07;;;;;;;32.03;43.68;100244.81;5020628;28;20060;-80
2021/07/06 10:46:52;;;;;;;10.90;6.45;;;;;;;31.83;43.97;100236.44;5030429;28;20056;-80
2021/07/06 10:49:56;;;;;;;10.82;5.65;;;;;;;32.11;44.21;100233.16;4996233;28;20057;-78
2021/07/06 10:53:19;;;;;;;10.18;5.60;;;;;;;32.48;43.27;100235.59;5032560;28;20053;-80
2021/07/06 10:56:32;;;;;;;13.48;7.57;;;;;;;32.20;43.91;100244.53;5030811;28;20499;-76
2021/07/06 10:59:36;;;;;;;17.13;6.88;;;;;;;32.31;43.97;100247.03;5013463;28;20048;-80
2021/07/06 11:02:41;;;;;;;8.95;5.60;;;;;;;32.49;43.93;100238.09;5018154;28;20070;-82
2021/07/06 11:05:46;;;;;;;11.00;5.72;;;;;;;32.50;43.30;100225.88;5033338;28;20052;-80
2021/07/06 11:08:50;;;;;;;7.57;4.22;;;;;;;32.61;43.25;100226.72;5029543;28;20048;-83
2021/07/06 11:12:24;;;;;;;11.35;5.75;;;;;;;32.53;43.78;100218.94;5033303;28;20052;-79
2021/07/06 11:15:30;;;;;;;9.38;7.05;;;;;;;32.13;44.13;100217.88;5029590;28;20053;-77
2021/07/06 11:18:41;;;;;;;14.15;5.97;;;;;;;31.87;44.16;100223.69;5026690;28;20064;-80
2021/07/06 11:21:45;;;;;;;8.48;4.43;;;;;;;31.97;44.74;100213.41;5014559;28;20049;-80
2021/07/06 11:24:50;;;;;;;7.95;4.47;;;;;;;32.02;44.05;100221.75;5005129;28;20056;-78
2021/07/06 11:28:04;;;;;;;9.57;4.72;;;;;;;32.05;43.41;100218.44;5017045;28;20515;-84
2021/07/06 11:31:20;;;;;;;5.45;3.65;;;;;;;31.89;41.90;100207.59;5032424;28;20053;-80
2021/07/06 11:34:33;;;;;;;6.00;3.60;;;;;;;31.88;42.84;100212.31;5017210;28;20057;-80
2021/07/06 11:37:45;;;;;;;4.43;3.60;;;;;;;31.84;43.18;100204.81;5016950;28;20061;-78
2021/07/06 11:40:54;;;;;;;8.07;2.97;;;;;;;31.96;42.63;100197.88;5017102;28;20069;-80
2021/07/06 11:43:58;;;;;;;9.68;4.22;;;;;;;31.75;42.11;100192.59;5017286;28;20069;-78
2021/07/06 11:47:11;;;;;;;7.00;3.03;;;;;;;31.66;42.59;100186.75;5004663;28;20053;-80
2021/07/06 11:50:25;;;;;;;;;;;;;;;31.83;41.95;100181.75;5016910;28;20049;-81
2021/07/06 11:53:32;;;;;;;6.10;3.70;;;;;;;32.06;42.86;100185.94;5016311;28;19917;-80
2021/07/06 11:56:37;;;;;;;7.13;3.50;;;;;;;32.22;43.17;100176.47;5016938;28;20052;-79
2021/07/06 11:59:41;;;;;;;4.88;3.45;;;;;;;31.96;42.90;100177.59;5016487;28;20053;-82
2021/07/06 12:02:46;;;;;;;8.18;3.65;;;;;;;31.96;43.49;100174.81;5016781;28;20053;-79
2021/07/06 12:05:57;;;;;;;8.18;3.05;;;;;;;32.10;42.82;100173.16;5016179;28;20061;-82
2021/07/06 12:09:05;;;;;;;7.85;2.97;;;;;;;32.28;42.46;100171.72;5016617;28;20061;-79
2021/07/06 12:12:17;;;;;;;12.27;4.20;;;;;;;31.93;42.93;100173.44;5016651;28;20516;-82
2021/07/06 12:15:37;;;;;;;6.97;3.28;;;;;;;32.10;42.87;100176.75;5004502;28;20056;-81
2021/07/06 12:18:55;;;;;;;7.75;3.08;;;;;;;32.11;42.45;100181.22;5004306;28;20049;-80
2021/07/06 12:22:00;;;;;;;6.22;2.97;;;;;;;32.05;42.59;100168.44;5016744;28;20045;-79
2021/07/06 12:25:05;;;;;;;11.40;3.58;;;;;;;32.05;42.48;100167.59;5016396;28;20060;-82
2021/07/06 12:28:10;;;;;;;8.85;3.05;;;;;;;32.01;42.20;100180.41;5016661;28;20052;-82
2021/07/06 12:31:24;;;;;;;6.93;3.35;;;;;;;32.15;41.99;100171.19;5016169;28;20053;-84
2021/07/06 12:34:37;;;;;;;4.45;2.50;;;;;;;32.40;41.97;100170.31;5016408;28;20064;-83
2021/07/06 12:37:41;;;;;;;4.75;3.10;;;;;;;32.66;42.02;100165.53;5015874;28;20061;-84
2021/07/06 12:40:45;;;;;;;6.43;3.20;;;;;;;32.53;41.88;100160.59;5016141;28;20121;-84
2021/07/06 12:43:56;;;;;;;8.07;2.97;;;;;;;32.64;41.79;100159.44;5015539;28;20057;-85
2021/07/06 12:47:23;;;;;;;11.93;3.65;;;;;;;32.55;42.51;100166.69;5003857;28;20049;-84
2021/07/06 12:50:30;;;;;;;7.60;3.45;;;;;;;32.44;42.71;100154.72;5003174;28;20075;-82
2021/07/06 12:53:35;;;;;;;7.22;3.30;;;;;;;32.43;42.79;100158.63;5015302;28;20057;-84
2021/07/06 12:56:39;;;;;;;5.93;3.00;;;;;;;32.59;42.74;100151.94;5003711;28;20053;-83
2021/07/06 12:59:43;;;;;;;9.82;3.83;;;;;;;32.45;42.45;100156.41;5003195;28;20046;-82
2021/07/06 13:03:01;;;;;;;6.63;3.58;;;;;;;32.36;42.68;100149.78;5015469;28;20500;-82
2021/07/06 13:06:10;;;;;;;7.60;3.63;;;;;;;32.43;42.64;100141.97;5015833;28;20057;-81
2021/07/06 13:09:27;;;;;;;6.13;2.92;;;;;;;32.65;42.38;100139.69;5003145;28;20057;-82
2021/07/06 13:12:32;;;;;;;7.47;2.88;;;;;;;32.58;41.95;100146.66;5015529;28;20049;-82
2021/07/06 13:15:40;;;;;;;9.80;3.20;;;;;;;32.67;41.47;100134.66;5033380;28;20052;-84
2021/07/06 13:18:48;;;;;;;9.60;3.03;;;;;;;32.70;41.76;100134.09;5016300;28;20041;-84
2021/07/06 13:21:52;;;;;;;5.65;3.60;;;;;;;32.73;41.51;100127.97;5031553;28;20045;-83
2021/07/06 13:24:58;;;;;;;8.73;2.80;;;;;;;32.47;42.02;100125.53;5031050;28;20056;-82
2021/07/06 13:28:04;;;;;;;6.60;2.72;;;;;;;32.57;41.62;100119.97;5032698;28;20056;-82
2021/07/06 13:31:09;;;;;;;5.72;2.47;;;;;;;32.71;41.60;100112.69;5032531;28;20056;-82
2021/07/06 13:34:13;;;;;;;6.35;3.08;;;;;;;32.68;41.06;100116.03;5032303;28;20396;-84
2021/07/06 13:37:18;;;;;;;6.00;3.20;;;;;;;32.71;41.09;100113.50;5021910;28;20052;-81
2021/07/06 13:40:25;;;;;;;7.72;2.97;;;;;;;32.59;40.63;100112.19;5035304;28;20492;-81
2021/07/06 13:43:32;;;;;;;8.02;3.25;;;;;;;32.44;41.24;100113.03;5034493;28;20068;-81
2021/07/06 13:46:37;;;;;;;5.82;2.92;;;;;;;32.57;41.16;100111.63;5035103;28;20048;-83
2021/07/06 13:49:41;;;;;;;5.32;2.60;;;;;;;32.77;40.96;100112.38;5034268;28;20057;-82
2021/07/06 13:52:46;;;;;;;5.00;2.92;;;;;;;32.77;40.48;100104.03;5034578;28;20118;-82
2021/07/06 13:55:52;;;;;;;9.02;3.13;;;;;;;32.71;39.67;100098.78;5034947;28;20496;-82
2021/07/06 13:58:56;;;;;;;7.38;2.55;;;;;;;32.81;39.87;100104.31;5034566;28;20124;-82
2021/07/06 14:02:02;;;;;;;6.60;2.55;;;;;;;33.03;39.86;100096.41;5034528;28;20060;-81
2021/07/06 14:05:07;;;;;;;9.93;2.60;;;;;;;33.08;39.23;100096.38;5034831;28;20057;-82
2021/07/06 14:08:15;;;;;;;9.88;2.35;;;;;;;32.77;39.04;100092.91;5034517;28;20053;-81
2021/07/06 14:11:19;;;;;;;5.43;2.30;;;;;;;32.76;39.03;100087.66;5034658;28;20397;-82
2021/07/06 14:14:23;;;;;;;7.90;2.30;;;;;;;32.81;39.16;100090.41;5034372;28;20052;-81
2021/07/06 14:17:28;;;;;;;7.82;2.15;;;;;;;32.80;38.75;100088.72;5034564;28;20044;-81
2021/07/06 14:20:33;;;;;;;7.38;2.75;;;;;;;32.95;39.16;100079.44;5034267;28;20049;-81
2021/07/06 14:23:38;;;;;;;5.85;2.20;;;;;;;32.97;38.59;100083.59;5034456;28;20048;-82
2021/07/06 14:26:42;;;;;;;6.53;2.05;;;;;;;32.97;38.61;100082.78;5034159;28;20487;-82
2021/07/06 14:29:47;;;;;;;6.50;1.98;;;;;;;32.95;38.27;100073.88;5033911;28;20491;-81